Isumimaru — JG5741 — position and weather

sailwx.info

Track history (hours):
 
Tides and Currents Weather Stations Pressure Air Temp Water Temp Dewpoint Dewpoint Depression Visibility Wind Speed Wind Dir Waves Ship Positions

Isumimaru

Last reported at 2017-Oct-20 08:30 UTC. Time now 2017-Oct-20 08:41 UTC.
Position N 35°25' E 139°41'.

Length 40 m; draft 3.8 m.

Type: Tug. MMSI: 431101042.

Date/timePositionNaut miles runAvg speedWind from/ knotsBaromVisibWave heightAir tempDewpointWater temp
2017-Oct-20 08:30N 35°25' E 139°41'0 0.0
2017-Oct-20 08:00N 35°25' E 139°41'0 0.0
2017-Oct-20 07:30N 35°25' E 139°41'0 0.0
2017-Oct-20 07:00N 35°25' E 139°41'0 0.0
2017-Oct-20 06:30N 35°25' E 139°41'0 0.0
2017-Oct-20 06:00N 35°25' E 139°41'0 0.0
2017-Oct-20 05:31N 35°25' E 139°41'0 0.0
2017-Oct-20 05:00N 35°25' E 139°41'0 0.0
2017-Oct-20 04:30N 35°25' E 139°41'1 2.4
2017-Oct-20 04:00N 35°25' E 139°42'510.4
2017-Oct-20 03:30N 35°23' E 139°48'4 7.0
2017-Oct-20 02:54N 35°22' E 139°53'0 0.0
2017-Oct-20 02:30N 35°22' E 139°53'510.7
2017-Oct-20 02:00N 35°23' E 139°47'510.7
2017-Oct-20 01:31N 35°25' E 139°41'0 0.0
2017-Oct-20 01:01N 35°25' E 139°41'0 0.0
2017-Oct-20 00:30N 35°25' E 139°41'1 2.7
2017-Oct-20 00:00N 35°24' E 139°42'2 4.0
2017-Oct-19 23:30N 35°24' E 139°39'1 1.7
2017-Oct-19 23:00N 35°24' E 139°38'0 0.1
2017-Oct-19 22:30N 35°24' E 139°38'0 0.1
2017-Oct-19 22:00N 35°24' E 139°38'2 3.0
2017-Oct-19 21:30N 35°23' E 139°40'2 3.9
2017-Oct-19 21:00N 35°25' E 139°41'0 0.0
2017-Oct-19 20:30N 35°25' E 139°41'0 0.0
2017-Oct-19 20:00N 35°25' E 139°41'0 0.0
2017-Oct-19 19:30N 35°25' E 139°41'0 0.0
2017-Oct-19 19:00N 35°25' E 139°41'0 0.0
2017-Oct-19 18:30N 35°25' E 139°41'0 0.0
2017-Oct-19 18:00N 35°25' E 139°41'0 0.0
2017-Oct-19 17:30N 35°25' E 139°41'0 0.0
2017-Oct-19 17:00N 35°25' E 139°41'0 0.0
2017-Oct-19 16:30N 35°25' E 139°41'0 0.0
2017-Oct-19 16:00N 35°25' E 139°41'0 0.0
2017-Oct-19 15:30N 35°25' E 139°41'0 0.0
2017-Oct-19 15:00N 35°25' E 139°41'0 0.0
2017-Oct-19 14:30N 35°25' E 139°41'0 0.0
2017-Oct-19 14:00N 35°25' E 139°41'0 0.0
2017-Oct-19 13:30N 35°25' E 139°41'0 0.0
2017-Oct-19 13:00N 35°25' E 139°41'0 0.0
2017-Oct-19 12:30N 35°25' E 139°41'0 0.0
2017-Oct-19 12:00N 35°25' E 139°41'0 0.0
2017-Oct-19 11:30N 35°25' E 139°41'0 0.0
2017-Oct-19 11:00N 35°25' E 139°41'0 0.0
2017-Oct-19 10:30N 35°25' E 139°41'0 0.0
2017-Oct-19 10:00N 35°25' E 139°41'0 0.0
2017-Oct-19 09:30N 35°25' E 139°41'0 0.0
2017-Oct-19 09:00N 35°25' E 139°41'0 0.0
2017-Oct-19 08:30N 35°25' E 139°41'0 0.0
2017-Oct-19 08:00N 35°25' E 139°41'0 0.0
2017-Oct-19 07:30N 35°25' E 139°41'0 0.0
2017-Oct-19 07:00N 35°25' E 139°41'0 0.0
2017-Oct-19 06:30N 35°25' E 139°41'0 0.0
2017-Oct-19 06:00N 35°25' E 139°41'0 0.0
2017-Oct-19 05:30N 35°25' E 139°41'0 0.0
2017-Oct-19 05:00N 35°25' E 139°41'3 6.6
2017-Oct-19 04:30N 35°24' E 139°44'5 9.9
2017-Oct-19 04:00N 35°21' E 139°49'0 0.5
2017-Oct-19 03:30N 35°21' E 139°49'0 0.2
2017-Oct-19 03:00N 35°21' E 139°49'0 0.1
2017-Oct-19 02:30N 35°21' E 139°49'0 0.1
2017-Oct-19 02:00N 35°21' E 139°49'0 0.1
2017-Oct-19 01:30N 35°21' E 139°49'0 0.1
2017-Oct-19 01:00N 35°21' E 139°49'0 0.0
2017-Oct-19 00:30N 35°21' E 139°49'0 0.1
2017-Oct-19 00:00N 35°21' E 139°49'0 0.5
2017-Oct-18 23:30N 35°20' E 139°49'0 0.3
2017-Oct-18 23:00N 35°21' E 139°49'0 0.1
2017-Oct-18 22:30N 35°21' E 139°49'0 0.4
2017-Oct-18 22:00N 35°21' E 139°49'0 0.3
2017-Oct-18 21:30N 35°21' E 139°49'0 0.4
2017-Oct-18 21:00N 35°20' E 139°49'0 0.7
2017-Oct-18 20:30N 35°21' E 139°49'0 0.2
2017-Oct-18 20:01N 35°21' E 139°49'0 0.7
2017-Oct-18 19:30N 35°20' E 139°49'0 0.1
2017-Oct-18 19:00N 35°20' E 139°49'0 0.0
2017-Oct-18 18:30N 35°20' E 139°49'0 0.0
2017-Oct-18 18:00N 35°20' E 139°49'0 0.0
2017-Oct-18 17:30N 35°20' E 139°49'0 0.0
2017-Oct-18 17:00N 35°20' E 139°49'0 0.0
2017-Oct-18 16:30N 35°20' E 139°49'0 0.0
2017-Oct-18 16:00N 35°20' E 139°49'0 0.0
2017-Oct-18 15:30N 35°20' E 139°49'0 0.0
2017-Oct-18 15:00N 35°20' E 139°49'0 0.0
2017-Oct-18 14:00N 35°20' E 139°49'0 0.0
2017-Oct-18 13:30N 35°20' E 139°49'0 0.7
2017-Oct-18 13:00N 35°20' E 139°49'0 0.9
2017-Oct-18 12:30N 35°21' E 139°49'0 0.9
2017-Oct-18 12:00N 35°20' E 139°49'0 0.6
2017-Oct-18 11:31N 35°21' E 139°49'0 0.4
2017-Oct-18 11:00N 35°21' E 139°49'0 0.1
2017-Oct-18 10:30N 35°21' E 139°49'0 0.3
2017-Oct-18 10:00N 35°21' E 139°49'0 0.1
2017-Oct-18 09:30N 35°21' E 139°49'0 0.4
2017-Oct-18 09:00N 35°21' E 139°49'0 0.2
2017-Oct-18 08:30N 35°21' E 139°49'0 0.5
2017-Oct-18 08:00N 35°21' E 139°49'0 0.1
2017-Oct-18 07:30N 35°21' E 139°49'0 0.2
2017-Oct-18 07:00N 35°21' E 139°49'0 0.1
2017-Oct-18 06:30N 35°21' E 139°49'0 0.5
2017-Oct-18 06:00N 35°21' E 139°49'0 0.5
2017-Oct-18 05:30N 35°21' E 139°49'0 0.1
2017-Oct-18 05:00N 35°21' E 139°49'0 0.1
2017-Oct-18 04:30N 35°21' E 139°49'0 0.3
2017-Oct-18 04:00N 35°20' E 139°49'0 0.2
2017-Oct-18 03:30N 35°20' E 139°49'0 0.2
2017-Oct-18 03:01N 35°20' E 139°49'0 0.0
2017-Oct-18 02:30N 35°21' E 139°49'0 0.4
2017-Oct-18 02:01N 35°21' E 139°49'1 2.4
2017-Oct-18 01:31N 35°22' E 139°49'1 2.9
2017-Oct-18 01:00N 35°23' E 139°48'4 8.7
2017-Oct-18 00:30N 35°24' E 139°43'2 3.5
2017-Oct-18 00:00N 35°25' E 139°41'0 0.0
2017-Oct-17 23:30N 35°25' E 139°41'0 0.0
2017-Oct-17 23:00N 35°25' E 139°41'0 0.0
2017-Oct-17 22:30N 35°25' E 139°41'0 0.0
2017-Oct-17 22:01N 35°25' E 139°41'0 0.0
2017-Oct-17 21:30N 35°25' E 139°41'0 0.0
2017-Oct-17 21:00N 35°25' E 139°41'0 0.0
2017-Oct-17 20:30N 35°25' E 139°41'0 0.0
2017-Oct-17 20:00N 35°25' E 139°41'0 0.0
2017-Oct-17 19:30N 35°25' E 139°41'0 0.0
2017-Oct-17 19:00N 35°25' E 139°41'0 0.0
2017-Oct-17 18:30N 35°25' E 139°41'0 0.0
2017-Oct-17 18:00N 35°25' E 139°41'0 0.0
2017-Oct-17 17:30N 35°25' E 139°41'0 0.0
2017-Oct-17 17:00N 35°25' E 139°41'0 0.0
2017-Oct-17 16:30N 35°25' E 139°41'0 0.0
2017-Oct-17 16:00N 35°25' E 139°41'0 0.0
2017-Oct-17 15:30N 35°25' E 139°41'0 0.0
2017-Oct-17 15:00N 35°25' E 139°41'0 0.0
2017-Oct-17 14:30N 35°25' E 139°41'0 0.0
2017-Oct-17 14:00N 35°25' E 139°41'0 0.0
2017-Oct-17 13:30N 35°25' E 139°41'0 0.0
2017-Oct-17 13:00N 35°25' E 139°41'0 0.0
2017-Oct-17 12:30N 35°25' E 139°41'0 0.0
2017-Oct-17 12:00N 35°25' E 139°41'0 0.0
2017-Oct-17 11:30N 35°25' E 139°41'0 0.0
2017-Oct-17 11:00N 35°25' E 139°41'0 0.0
2017-Oct-17 10:30N 35°25' E 139°41'0 0.0
2017-Oct-17 10:00N 35°25' E 139°41'0 0.0
2017-Oct-17 09:30N 35°25' E 139°41'0 0.0
2017-Oct-17 09:00N 35°25' E 139°41'0 0.0
2017-Oct-17 08:30N 35°25' E 139°41'0 0.0
2017-Oct-17 08:00N 35°25' E 139°41'0 0.0
2017-Oct-17 07:30N 35°25' E 139°41'0 0.0
2017-Oct-17 07:00N 35°25' E 139°41'0 0.0
2017-Oct-17 06:30N 35°25' E 139°41'0 0.0
2017-Oct-17 06:00N 35°25' E 139°41'0 0.0
2017-Oct-17 05:30N 35°25' E 139°41'0 0.0
2017-Oct-17 05:00N 35°25' E 139°41'0 0.0
2017-Oct-17 04:30N 35°25' E 139°41'0 0.0
2017-Oct-17 04:00N 35°25' E 139°41'0 0.0
2017-Oct-17 03:30N 35°25' E 139°41'0 0.0
2017-Oct-17 03:00N 35°25' E 139°41'0 0.0
2017-Oct-17 02:30N 35°25' E 139°41'1 2.7
2017-Oct-17 02:00N 35°24' E 139°42'1 1.7
2017-Oct-17 01:30N 35°24' E 139°41'1 2.1
2017-Oct-17 01:00N 35°23' E 139°41'1 2.4
2017-Oct-17 00:30N 35°24' E 139°42'1 2.3
2017-Oct-17 00:00N 35°25' E 139°41'0 0.1
2017-Oct-16 23:30N 35°25' E 139°41'0 0.1
2017-Oct-16 23:00N 35°25' E 139°41'0 0.1
2017-Oct-16 22:30N 35°25' E 139°41'0 0.0
2017-Oct-16 22:00N 35°25' E 139°41'0 0.0
2017-Oct-16 21:30N 35°25' E 139°41'0 0.0
2017-Oct-16 21:00N 35°25' E 139°41'0 0.0
2017-Oct-16 20:30N 35°25' E 139°41'0 0.0
2017-Oct-16 20:00N 35°25' E 139°41'0 0.0
2017-Oct-16 19:30N 35°25' E 139°41'0 0.0
2017-Oct-16 19:00N 35°25' E 139°41'0 0.0
2017-Oct-16 18:30N 35°25' E 139°41'0 0.0
2017-Oct-16 18:00N 35°25' E 139°41'0 0.0
2017-Oct-16 17:30N 35°25' E 139°41'0 0.0
2017-Oct-16 17:00N 35°25' E 139°41'0 0.0
2017-Oct-16 16:30N 35°25' E 139°41'0 0.0
2017-Oct-16 16:00N 35°25' E 139°41'4 8.8
2017-Oct-16 15:30N 35°23' E 139°46'5 9.8
2017-Oct-16 14:58N 35°22' E 139°52'2 1.5
2017-Oct-16 13:54N 35°23' E 139°51'2 5.4
2017-Oct-16 13:30N 35°24' E 139°48'0 0.9
2017-Oct-16 13:00N 35°24' E 139°48'3 5.1
2017-Oct-16 12:30N 35°23' E 139°50'2 2.8
2017-Oct-16 11:56N 35°22' E 139°52'0 0.0
2017-Oct-16 11:30N 35°22' E 139°52'2 4.0
2017-Oct-16 10:52N 35°23' E 139°49'3 8.4
2017-Oct-16 10:30N 35°23' E 139°46'4 8.6
2017-Oct-16 10:00N 35°25' E 139°41'0 0.0
2017-Oct-16 09:30N 35°25' E 139°41'0 0.0
2017-Oct-16 09:00N 35°25' E 139°41'0 0.0
2017-Oct-16 08:30N 35°25' E 139°41'0 0.0
2017-Oct-16 08:00N 35°25' E 139°41'0 0.0
2017-Oct-16 07:30N 35°25' E 139°41'0 0.0
2017-Oct-16 07:00N 35°25' E 139°41'0 0.0
2017-Oct-16 06:30N 35°25' E 139°41'0 0.0
2017-Oct-16 06:00N 35°25' E 139°41'0 0.0
2017-Oct-16 05:30N 35°25' E 139°41'0 0.0
2017-Oct-16 05:00N 35°25' E 139°41'0 0.0
2017-Oct-16 04:30N 35°25' E 139°41'0 0.0
2017-Oct-16 04:00N 35°25' E 139°41'0 0.0
2017-Oct-16 03:31N 35°25' E 139°41'0 0.0
2017-Oct-16 03:00N 35°25' E 139°41'0 0.0
2017-Oct-16 02:30N 35°25' E 139°41'0 0.0
2017-Oct-16 02:00N 35°25' E 139°41'0 0.0
2017-Oct-16 01:30N 35°25' E 139°41'0 0.0
2017-Oct-16 01:00N 35°25' E 139°41'0 0.0
2017-Oct-16 00:30N 35°25' E 139°41'0 0.0
2017-Oct-16 00:00N 35°25' E 139°41'0 0.0
2017-Oct-15 23:30N 35°25' E 139°41'0 0.0
2017-Oct-15 23:00N 35°25' E 139°41'0 0.0
2017-Oct-15 22:30N 35°25' E 139°41'0 0.0
2017-Oct-15 22:00N 35°25' E 139°41'0 0.0
2017-Oct-15 21:30N 35°25' E 139°41'0 0.0
2017-Oct-15 21:00N 35°25' E 139°41'0 0.0
2017-Oct-15 20:30N 35°25' E 139°41'0 0.0
2017-Oct-15 20:00N 35°25' E 139°41'0 0.0
2017-Oct-15 19:30N 35°25' E 139°41'0 0.0
2017-Oct-15 19:00N 35°25' E 139°41'0 0.0
2017-Oct-15 18:30N 35°25' E 139°41'0 0.0
2017-Oct-15 18:00N 35°25' E 139°41'0 0.0
2017-Oct-15 17:30N 35°25' E 139°41'0 0.0
2017-Oct-15 17:00N 35°25' E 139°41'0 0.0
2017-Oct-15 16:30N 35°25' E 139°41'0 0.0
2017-Oct-15 16:00N 35°25' E 139°41'0 0.0
2017-Oct-15 15:30N 35°25' E 139°41'0 0.0
2017-Oct-15 15:00N 35°25' E 139°41'0 0.0
2017-Oct-15 14:00N 35°25' E 139°41'0 0.0
2017-Oct-15 13:30N 35°25' E 139°41'0 0.0
2017-Oct-15 13:00N 35°25' E 139°41'0 0.0
2017-Oct-15 12:30N 35°25' E 139°41'0 0.0
2017-Oct-15 12:00N 35°25' E 139°41'0 0.0
2017-Oct-15 11:30N 35°25' E 139°41'0 0.0
2017-Oct-15 11:00N 35°25' E 139°41'0 0.0
2017-Oct-15 10:30N 35°25' E 139°41'0 0.0
2017-Oct-15 10:00N 35°25' E 139°41'0 0.0
2017-Oct-15 09:30N 35°25' E 139°41'0 0.0
2017-Oct-15 09:00N 35°25' E 139°41'0 0.0
2017-Oct-15 08:30N 35°25' E 139°41'0 0.0
2017-Oct-15 08:00N 35°25' E 139°41'0 0.0
2017-Oct-15 07:30N 35°25' E 139°41'0 0.0
2017-Oct-15 07:00N 35°25' E 139°41'2 4.5
2017-Oct-15 06:30N 35°24' E 139°43'611.4
2017-Oct-15 06:00N 35°23' E 139°50'2 3.2
2017-Oct-15 05:30N 35°22' E 139°52'1 1.3
2017-Oct-15 04:46N 35°23' E 139°51'3 6.2
2017-Oct-15 04:19N 35°24' E 139°48'1 4.3
2017-Oct-15 04:00N 35°25' E 139°49'1 2.0
2017-Oct-15 03:30N 35°25' E 139°49'3 6.5
2017-Oct-15 03:00N 35°22' E 139°52'1 2.0
2017-Oct-15 02:25N 35°23' E 139°51'2 5.8
2017-Oct-15 02:00N 35°21' E 139°49'0 0.0
2017-Oct-15 01:30N 35°20' E 139°49'0 0.8
2017-Oct-15 01:00N 35°21' E 139°49'3 5.1
2017-Oct-15 00:30N 35°23' E 139°48'2 4.2
2017-Oct-15 00:00N 35°22' E 139°46'0 0.4
2017-Oct-14 23:30N 35°22' E 139°46'0 0.8
2017-Oct-14 23:00N 35°22' E 139°46'5 9.6
2017-Oct-14 22:30N 35°25' E 139°41'0 0.4
2017-Oct-14 22:00N 35°25' E 139°41'0 0.0
2017-Oct-14 21:30N 35°25' E 139°41'0 0.0
2017-Oct-14 21:00N 35°25' E 139°41'0 0.0
2017-Oct-14 20:30N 35°25' E 139°41'0 0.0
2017-Oct-14 20:00N 35°25' E 139°41'0 0.0
2017-Oct-14 19:30N 35°25' E 139°41'0 0.0
2017-Oct-14 19:00N 35°25' E 139°41'0 0.0
2017-Oct-14 18:30N 35°25' E 139°41'0 0.0
2017-Oct-14 18:00N 35°25' E 139°41'0 0.0
2017-Oct-14 17:30N 35°25' E 139°41'0 0.0
2017-Oct-14 17:00N 35°25' E 139°41'0 0.0
2017-Oct-14 16:30N 35°25' E 139°41'0 0.0
2017-Oct-14 16:00N 35°25' E 139°41'0 0.0
2017-Oct-14 15:30N 35°25' E 139°41'0 0.0
2017-Oct-14 15:00N 35°25' E 139°41'0 0.0
2017-Oct-14 14:30N 35°25' E 139°41'0 0.0
2017-Oct-14 14:00N 35°25' E 139°41'0 0.0
2017-Oct-14 13:30N 35°25' E 139°41'0 0.0
2017-Oct-14 13:00N 35°25' E 139°41'0 0.0
2017-Oct-14 12:30N 35°25' E 139°41'0 0.0
2017-Oct-14 12:00N 35°25' E 139°41'0 0.0
2017-Oct-14 11:30N 35°25' E 139°41'0 0.0
2017-Oct-14 11:00N 35°25' E 139°41'0 0.0
2017-Oct-14 10:30N 35°25' E 139°41'0 0.0
2017-Oct-14 10:00N 35°25' E 139°41'0 0.0
2017-Oct-14 09:30N 35°25' E 139°41'0 0.0
2017-Oct-14 09:00N 35°25' E 139°41'0 0.0
2017-Oct-14 08:30N 35°25' E 139°41'0 0.0
2017-Oct-14 08:00N 35°25' E 139°41'0 0.0
2017-Oct-14 07:30N 35°25' E 139°41'0 0.0
2017-Oct-14 07:00N 35°25' E 139°41'0 0.0
2017-Oct-14 06:30N 35°25' E 139°41'0 0.0
2017-Oct-14 06:00N 35°25' E 139°41'0 0.0
2017-Oct-14 05:30N 35°25' E 139°41'0 0.0
2017-Oct-14 05:00N 35°25' E 139°41'0 0.0
2017-Oct-14 04:30N 35°25' E 139°41'0 0.0
2017-Oct-14 04:00N 35°25' E 139°41'0 0.0
2017-Oct-14 03:30N 35°25' E 139°41'0 0.0
2017-Oct-14 03:00N 35°25' E 139°41'0 0.0
2017-Oct-14 02:30N 35°25' E 139°41'0 0.0
2017-Oct-14 02:00N 35°25' E 139°41'0 0.0
2017-Oct-14 01:30N 35°25' E 139°41'1 1.4
2017-Oct-14 01:00N 35°25' E 139°42'3 6.2
2017-Oct-14 00:30N 35°24' E 139°38'0 0.3
2017-Oct-14 00:00N 35°24' E 139°38'1 1.5
2017-Oct-13 23:30N 35°24' E 139°39'1 1.6
2017-Oct-13 23:00N 35°23' E 139°40'1 2.7
2017-Oct-13 22:30N 35°24' E 139°38'3 5.3
2017-Oct-13 22:00N 35°25' E 139°41'0 0.6
2017-Oct-13 21:30N 35°25' E 139°41'0 0.0
2017-Oct-13 21:00N 35°25' E 139°41'0 0.0
2017-Oct-13 20:30N 35°25' E 139°41'0 0.0
2017-Oct-13 20:00N 35°25' E 139°41'0 0.0
2017-Oct-13 19:30N 35°25' E 139°41'0 0.0
2017-Oct-13 19:00N 35°25' E 139°41'0 0.0
2017-Oct-13 18:30N 35°25' E 139°41'0 0.0
2017-Oct-13 18:00N 35°25' E 139°41'0 0.0
2017-Oct-13 17:30N 35°25' E 139°41'0 0.0
2017-Oct-13 17:00N 35°25' E 139°41'0 0.0
2017-Oct-13 16:30N 35°25' E 139°41'0 0.0
2017-Oct-13 16:00N 35°25' E 139°41'0 0.0
2017-Oct-13 15:30N 35°25' E 139°41'0 0.0
2017-Oct-13 15:00N 35°25' E 139°41'0 0.0
2017-Oct-13 14:30N 35°25' E 139°41'0 0.0
2017-Oct-13 14:00N 35°25' E 139°41'0 0.0
2017-Oct-13 13:30N 35°25' E 139°41'0 0.0
2017-Oct-13 13:00N 35°25' E 139°41'0 0.0
2017-Oct-13 12:30N 35°25' E 139°41'0 0.0
2017-Oct-13 12:00N 35°25' E 139°41'0 0.0
2017-Oct-13 11:30N 35°25' E 139°41'0 0.0
2017-Oct-13 11:00N 35°25' E 139°41'0 0.0
2017-Oct-13 10:30N 35°25' E 139°41'0 0.0
2017-Oct-13 10:00N 35°25' E 139°41'0 0.0
2017-Oct-13 09:30N 35°25' E 139°41'0 0.0
2017-Oct-13 09:00N 35°25' E 139°41'0 0.2
2017-Oct-13 08:31N 35°25' E 139°41'3 5.3
2017-Oct-13 08:00N 35°24' E 139°38'0 0.1
2017-Oct-13 07:30N 35°24' E 139°38'0 0.0
2017-Oct-13 07:00N 35°24' E 139°38'0 0.0
2017-Oct-13 06:30N 35°24' E 139°38'1 1.8
2017-Oct-13 06:00N 35°24' E 139°39'4 7.8
2017-Oct-13 05:30N 35°26' E 139°43'3 6.2
2017-Oct-13 05:00N 35°29' E 139°42'0 0.1
2017-Oct-13 04:30N 35°29' E 139°42'2 4.5
2017-Oct-13 04:00N 35°27' E 139°42'3 5.0
2017-Oct-13 03:30N 35°25' E 139°41'0 0.0
2017-Oct-13 03:00N 35°25' E 139°41'0 0.0
2017-Oct-13 02:30N 35°25' E 139°41'0 0.0
2017-Oct-13 02:00N 35°25' E 139°41'0 0.0
2017-Oct-13 01:30N 35°25' E 139°41'0 0.0
2017-Oct-13 01:00N 35°25' E 139°41'0 0.0
2017-Oct-13 00:30N 35°25' E 139°41'0 0.0
2017-Oct-13 00:00N 35°25' E 139°41'0 0.0
2017-Oct-12 23:30N 35°25' E 139°41'0 0.0
2017-Oct-12 23:00N 35°25' E 139°41'0 0.0
2017-Oct-12 22:30N 35°25' E 139°41'0 0.0
2017-Oct-12 22:00N 35°25' E 139°41'0 0.0
2017-Oct-12 21:30N 35°25' E 139°41'0 0.0
2017-Oct-12 21:00N 35°25' E 139°41'0 0.0
2017-Oct-12 20:30N 35°25' E 139°41'0 0.0
2017-Oct-12 20:00N 35°25' E 139°41'0 0.0
2017-Oct-12 19:30N 35°25' E 139°41'0 0.0
2017-Oct-12 19:00N 35°25' E 139°41'0 0.0
2017-Oct-12 18:30N 35°25' E 139°41'0 0.0
2017-Oct-12 18:00N 35°25' E 139°41'0 0.0
2017-Oct-12 17:30N 35°25' E 139°41'0 0.0
2017-Oct-12 17:00N 35°25' E 139°41'0 0.0
2017-Oct-12 16:30N 35°25' E 139°41'0 0.0
2017-Oct-12 16:00N 35°25' E 139°41'0 0.0
2017-Oct-12 15:30N 35°25' E 139°41'0 0.0
2017-Oct-12 15:00N 35°25' E 139°41'0 0.0
2017-Oct-12 14:30N 35°25' E 139°41'0 0.0
2017-Oct-12 14:00N 35°25' E 139°41'0 0.0
2017-Oct-12 13:30N 35°25' E 139°41'0 0.0
2017-Oct-12 13:00N 35°25' E 139°41'0 0.0
2017-Oct-12 12:30N 35°25' E 139°41'0 0.0
2017-Oct-12 12:00N 35°25' E 139°41'0 0.0
2017-Oct-12 11:30N 35°25' E 139°41'0 0.0
2017-Oct-12 11:00N 35°25' E 139°41'0 0.0
2017-Oct-12 10:30N 35°25' E 139°41'0 0.0
2017-Oct-12 10:00N 35°25' E 139°41'0 0.0
2017-Oct-12 09:30N 35°25' E 139°41'0 0.0
2017-Oct-12 09:00N 35°25' E 139°41'0 0.0
2017-Oct-12 08:30N 35°25' E 139°41'0 0.0
2017-Oct-12 08:00N 35°25' E 139°41'0 0.1
2017-Oct-12 07:30N 35°25' E 139°41'0 0.1
2017-Oct-12 07:00N 35°25' E 139°41'0 0.0
2017-Oct-12 06:30N 35°25' E 139°41'0 0.0
2017-Oct-12 06:00N 35°25' E 139°41'0 0.0
2017-Oct-12 05:30N 35°25' E 139°41'0 0.0
2017-Oct-12 05:00N 35°25' E 139°41'3 5.5
2017-Oct-12 04:30N 35°24' E 139°44'611.1
2017-Oct-12 04:00N 35°23' E 139°51'1 2.8
2017-Oct-12 03:30N 35°22' E 139°52'3 2.4
2017-Oct-12 02:19N 35°24' E 139°49'1 2.9
2017-Oct-12 01:59N 35°24' E 139°48'0 0.1
2017-Oct-12 01:30N 35°24' E 139°48'2 3.7
2017-Oct-12 01:00N 35°22' E 139°49'2 4.1
2017-Oct-12 00:30N 35°20' E 139°49'0 0.4
2017-Oct-12 00:00N 35°21' E 139°49'1 2.1
2017-Oct-11 23:30N 35°21' E 139°49'4 8.8
2017-Oct-11 23:00N 35°24' E 139°44'4 0.2
2017-Oct-10 23:53N 35°23' E 139°48'1 1.1
2017-Oct-10 23:24N 35°23' E 139°48'1 3.6
2017-Oct-10 23:00N 35°23' E 139°46'5 0.5
2017-Oct-10 13:48N 35°25' E 139°41'0 0.0
2017-Oct-10 09:24N 35°25' E 139°41'  
Track history (hours):
 
Tides and Currents Weather Stations Pressure Air Temp Water Temp Dewpoint Dewpoint Depression Visibility Wind Speed Wind Dir Waves Ship Positions

Isumimaru

Last reported at 2017-Oct-20 08:30 UTC. Time now 2017-Oct-20 08:41 UTC.
Position N 35°25' E 139°41'.

Length 40 m; draft 3.8 m.

Type: Tug. MMSI: 431101042.

Date/timePositionNaut miles runAvg speedWind from/ knotsBaromVisibWave heightAir tempDewpointWater temp
2017-Oct-20 08:30N 35°25' E 139°41'0 0.0
2017-Oct-20 08:00N 35°25' E 139°41'0 0.0
2017-Oct-20 07:30N 35°25' E 139°41'0 0.0
2017-Oct-20 07:00N 35°25' E 139°41'0 0.0
2017-Oct-20 06:30N 35°25' E 139°41'0 0.0
2017-Oct-20 06:00N 35°25' E 139°41'0 0.0
2017-Oct-20 05:31N 35°25' E 139°41'0 0.0
2017-Oct-20 05:00N 35°25' E 139°41'0 0.0
2017-Oct-20 04:30N 35°25' E 139°41'1 2.4
2017-Oct-20 04:00N 35°25' E 139°42'510.4
2017-Oct-20 03:30N 35°23' E 139°48'4 7.0
2017-Oct-20 02:54N 35°22' E 139°53'0 0.0
2017-Oct-20 02:30N 35°22' E 139°53'510.7
2017-Oct-20 02:00N 35°23' E 139°47'510.7
2017-Oct-20 01:31N 35°25' E 139°41'0 0.0
2017-Oct-20 01:01N 35°25' E 139°41'0 0.0
2017-Oct-20 00:30N 35°25' E 139°41'1 2.7
2017-Oct-20 00:00N 35°24' E 139°42'2 4.0
2017-Oct-19 23:30N 35°24' E 139°39'1 1.7
2017-Oct-19 23:00N 35°24' E 139°38'0 0.1
2017-Oct-19 22:30N 35°24' E 139°38'0 0.1
2017-Oct-19 22:00N 35°24' E 139°38'2 3.0
2017-Oct-19 21:30N 35°23' E 139°40'2 3.9
2017-Oct-19 21:00N 35°25' E 139°41'0 0.0
2017-Oct-19 20:30N 35°25' E 139°41'0 0.0
2017-Oct-19 20:00N 35°25' E 139°41'0 0.0
2017-Oct-19 19:30N 35°25' E 139°41'0 0.0
2017-Oct-19 19:00N 35°25' E 139°41'0 0.0
2017-Oct-19 18:30N 35°25' E 139°41'0 0.0
2017-Oct-19 18:00N 35°25' E 139°41'0 0.0
2017-Oct-19 17:30N 35°25' E 139°41'0 0.0
2017-Oct-19 17:00N 35°25' E 139°41'0 0.0
2017-Oct-19 16:30N 35°25' E 139°41'0 0.0
2017-Oct-19 16:00N 35°25' E 139°41'0 0.0
2017-Oct-19 15:30N 35°25' E 139°41'0 0.0
2017-Oct-19 15:00N 35°25' E 139°41'0 0.0
2017-Oct-19 14:30N 35°25' E 139°41'0 0.0
2017-Oct-19 14:00N 35°25' E 139°41'0 0.0
2017-Oct-19 13:30N 35°25' E 139°41'0 0.0
2017-Oct-19 13:00N 35°25' E 139°41'0 0.0
2017-Oct-19 12:30N 35°25' E 139°41'0 0.0
2017-Oct-19 12:00N 35°25' E 139°41'0 0.0
2017-Oct-19 11:30N 35°25' E 139°41'0 0.0
2017-Oct-19 11:00N 35°25' E 139°41'0 0.0
2017-Oct-19 10:30N 35°25' E 139°41'0 0.0
2017-Oct-19 10:00N 35°25' E 139°41'0 0.0
2017-Oct-19 09:30N 35°25' E 139°41'0 0.0
2017-Oct-19 09:00N 35°25' E 139°41'0 0.0
2017-Oct-19 08:30N 35°25' E 139°41'0 0.0
2017-Oct-19 08:00N 35°25' E 139°41'0 0.0
2017-Oct-19 07:30N 35°25' E 139°41'0 0.0
2017-Oct-19 07:00N 35°25' E 139°41'0 0.0
2017-Oct-19 06:30N 35°25' E 139°41'0 0.0
2017-Oct-19 06:00N 35°25' E 139°41'0 0.0
2017-Oct-19 05:30N 35°25' E 139°41'0 0.0
2017-Oct-19 05:00N 35°25' E 139°41'3 6.6
2017-Oct-19 04:30N 35°24' E 139°44'5 9.9
2017-Oct-19 04:00N 35°21' E 139°49'0 0.5
2017-Oct-19 03:30N 35°21' E 139°49'0 0.2
2017-Oct-19 03:00N 35°21' E 139°49'0 0.1
2017-Oct-19 02:30N 35°21' E 139°49'0 0.1
2017-Oct-19 02:00N 35°21' E 139°49'0 0.1
2017-Oct-19 01:30N 35°21' E 139°49'0 0.1
2017-Oct-19 01:00N 35°21' E 139°49'0 0.0
2017-Oct-19 00:30N 35°21' E 139°49'0 0.1
2017-Oct-19 00:00N 35°21' E 139°49'0 0.5
2017-Oct-18 23:30N 35°20' E 139°49'0 0.3
2017-Oct-18 23:00N 35°21' E 139°49'0 0.1
2017-Oct-18 22:30N 35°21' E 139°49'0 0.4
2017-Oct-18 22:00N 35°21' E 139°49'0 0.3
2017-Oct-18 21:30N 35°21' E 139°49'0 0.4
2017-Oct-18 21:00N 35°20' E 139°49'0 0.7
2017-Oct-18 20:30N 35°21' E 139°49'0 0.2
2017-Oct-18 20:01N 35°21' E 139°49'0 0.7
2017-Oct-18 19:30N 35°20' E 139°49'0 0.1
2017-Oct-18 19:00N 35°20' E 139°49'0 0.0
2017-Oct-18 18:30N 35°20' E 139°49'0 0.0
2017-Oct-18 18:00N 35°20' E 139°49'0 0.0
2017-Oct-18 17:30N 35°20' E 139°49'0 0.0
2017-Oct-18 17:00N 35°20' E 139°49'0 0.0
2017-Oct-18 16:30N 35°20' E 139°49'0 0.0
2017-Oct-18 16:00N 35°20' E 139°49'0 0.0
2017-Oct-18 15:30N 35°20' E 139°49'0 0.0
2017-Oct-18 15:00N 35°20' E 139°49'0 0.0
2017-Oct-18 14:00N 35°20' E 139°49'0 0.0
2017-Oct-18 13:30N 35°20' E 139°49'0 0.7
2017-Oct-18 13:00N 35°20' E 139°49'0 0.9
2017-Oct-18 12:30N 35°21' E 139°49'0 0.9
2017-Oct-18 12:00N 35°20' E 139°49'0 0.6
2017-Oct-18 11:31N 35°21' E 139°49'0 0.4
2017-Oct-18 11:00N 35°21' E 139°49'0 0.1
2017-Oct-18 10:30N 35°21' E 139°49'0 0.3
2017-Oct-18 10:00N 35°21' E 139°49'0 0.1
2017-Oct-18 09:30N 35°21' E 139°49'0 0.4
2017-Oct-18 09:00N 35°21' E 139°49'0 0.2
2017-Oct-18 08:30N 35°21' E 139°49'0 0.5
2017-Oct-18 08:00N 35°21' E 139°49'0 0.1
2017-Oct-18 07:30N 35°21' E 139°49'0 0.2
2017-Oct-18 07:00N 35°21' E 139°49'0 0.1
2017-Oct-18 06:30N 35°21' E 139°49'0 0.5
2017-Oct-18 06:00N 35°21' E 139°49'0 0.5
2017-Oct-18 05:30N 35°21' E 139°49'0 0.1
2017-Oct-18 05:00N 35°21' E 139°49'0 0.1
2017-Oct-18 04:30N 35°21' E 139°49'0 0.3
2017-Oct-18 04:00N 35°20' E 139°49'0 0.2
2017-Oct-18 03:30N 35°20' E 139°49'0 0.2
2017-Oct-18 03:01N 35°20' E 139°49'0 0.0
2017-Oct-18 02:30N 35°21' E 139°49'0 0.4
2017-Oct-18 02:01N 35°21' E 139°49'1 2.4
2017-Oct-18 01:31N 35°22' E 139°49'1 2.9
2017-Oct-18 01:00N 35°23' E 139°48'4 8.7
2017-Oct-18 00:30N 35°24' E 139°43'2 3.5
2017-Oct-18 00:00N 35°25' E 139°41'0 0.0
2017-Oct-17 23:30N 35°25' E 139°41'0 0.0
2017-Oct-17 23:00N 35°25' E 139°41'0 0.0
2017-Oct-17 22:30N 35°25' E 139°41'0 0.0
2017-Oct-17 22:01N 35°25' E 139°41'0 0.0
2017-Oct-17 21:30N 35°25' E 139°41'0 0.0
2017-Oct-17 21:00N 35°25' E 139°41'0 0.0
2017-Oct-17 20:30N 35°25' E 139°41'0 0.0
2017-Oct-17 20:00N 35°25' E 139°41'0 0.0
2017-Oct-17 19:30N 35°25' E 139°41'0 0.0
2017-Oct-17 19:00N 35°25' E 139°41'0 0.0
2017-Oct-17 18:30N 35°25' E 139°41'0 0.0
2017-Oct-17 18:00N 35°25' E 139°41'0 0.0
2017-Oct-17 17:30N 35°25' E 139°41'0 0.0
2017-Oct-17 17:00N 35°25' E 139°41'0 0.0
2017-Oct-17 16:30N 35°25' E 139°41'0 0.0
2017-Oct-17 16:00N 35°25' E 139°41'0 0.0
2017-Oct-17 15:30N 35°25' E 139°41'0 0.0
2017-Oct-17 15:00N 35°25' E 139°41'0 0.0
2017-Oct-17 14:30N 35°25' E 139°41'0 0.0
2017-Oct-17 14:00N 35°25' E 139°41'0 0.0
2017-Oct-17 13:30N 35°25' E 139°41'0 0.0
2017-Oct-17 13:00N 35°25' E 139°41'0 0.0
2017-Oct-17 12:30N 35°25' E 139°41'0 0.0
2017-Oct-17 12:00N 35°25' E 139°41'0 0.0
2017-Oct-17 11:30N 35°25' E 139°41'0 0.0
2017-Oct-17 11:00N 35°25' E 139°41'0 0.0
2017-Oct-17 10:30N 35°25' E 139°41'0 0.0
2017-Oct-17 10:00N 35°25' E 139°41'0 0.0
2017-Oct-17 09:30N 35°25' E 139°41'0 0.0
2017-Oct-17 09:00N 35°25' E 139°41'0 0.0
2017-Oct-17 08:30N 35°25' E 139°41'0 0.0
2017-Oct-17 08:00N 35°25' E 139°41'0 0.0
2017-Oct-17 07:30N 35°25' E 139°41'0 0.0
2017-Oct-17 07:00N 35°25' E 139°41'0 0.0
2017-Oct-17 06:30N 35°25' E 139°41'0 0.0
2017-Oct-17 06:00N 35°25' E 139°41'0 0.0
2017-Oct-17 05:30N 35°25' E 139°41'0 0.0
2017-Oct-17 05:00N 35°25' E 139°41'0 0.0
2017-Oct-17 04:30N 35°25' E 139°41'0 0.0
2017-Oct-17 04:00N 35°25' E 139°41'0 0.0
2017-Oct-17 03:30N 35°25' E 139°41'0 0.0
2017-Oct-17 03:00N 35°25' E 139°41'0 0.0
2017-Oct-17 02:30N 35°25' E 139°41'1 2.7
2017-Oct-17 02:00N 35°24' E 139°42'1 1.7
2017-Oct-17 01:30N 35°24' E 139°41'1 2.1
2017-Oct-17 01:00N 35°23' E 139°41'1 2.4
2017-Oct-17 00:30N 35°24' E 139°42'1 2.3
2017-Oct-17 00:00N 35°25' E 139°41'0 0.1
2017-Oct-16 23:30N 35°25' E 139°41'0 0.1
2017-Oct-16 23:00N 35°25' E 139°41'0 0.1
2017-Oct-16 22:30N 35°25' E 139°41'0 0.0
2017-Oct-16 22:00N 35°25' E 139°41'0 0.0
2017-Oct-16 21:30N 35°25' E 139°41'0 0.0
2017-Oct-16 21:00N 35°25' E 139°41'0 0.0
2017-Oct-16 20:30N 35°25' E 139°41'0 0.0
2017-Oct-16 20:00N 35°25' E 139°41'0 0.0
2017-Oct-16 19:30N 35°25' E 139°41'0 0.0
2017-Oct-16 19:00N 35°25' E 139°41'0 0.0
2017-Oct-16 18:30N 35°25' E 139°41'0 0.0
2017-Oct-16 18:00N 35°25' E 139°41'0 0.0
2017-Oct-16 17:30N 35°25' E 139°41'0 0.0
2017-Oct-16 17:00N 35°25' E 139°41'0 0.0
2017-Oct-16 16:30N 35°25' E 139°41'0 0.0
2017-Oct-16 16:00N 35°25' E 139°41'4 8.8
2017-Oct-16 15:30N 35°23' E 139°46'5 9.8
2017-Oct-16 14:58N 35°22' E 139°52'2 1.5
2017-Oct-16 13:54N 35°23' E 139°51'2 5.4
2017-Oct-16 13:30N 35°24' E 139°48'0 0.9
2017-Oct-16 13:00N 35°24' E 139°48'3 5.1
2017-Oct-16 12:30N 35°23' E 139°50'2 2.8
2017-Oct-16 11:56N 35°22' E 139°52'0 0.0
2017-Oct-16 11:30N 35°22' E 139°52'2 4.0
2017-Oct-16 10:52N 35°23' E 139°49'3 8.4
2017-Oct-16 10:30N 35°23' E 139°46'4 8.6
2017-Oct-16 10:00N 35°25' E 139°41'0 0.0
2017-Oct-16 09:30N 35°25' E 139°41'0 0.0
2017-Oct-16 09:00N 35°25' E 139°41'0 0.0
2017-Oct-16 08:30N 35°25' E 139°41'0 0.0
2017-Oct-16 08:00N 35°25' E 139°41'0 0.0
2017-Oct-16 07:30N 35°25' E 139°41'0 0.0
2017-Oct-16 07:00N 35°25' E 139°41'0 0.0
2017-Oct-16 06:30N 35°25' E 139°41'0 0.0
2017-Oct-16 06:00N 35°25' E 139°41'0 0.0
2017-Oct-16 05:30N 35°25' E 139°41'0 0.0
2017-Oct-16 05:00N 35°25' E 139°41'0 0.0
2017-Oct-16 04:30N 35°25' E 139°41'0 0.0
2017-Oct-16 04:00N 35°25' E 139°41'0 0.0
2017-Oct-16 03:31N 35°25' E 139°41'0 0.0
2017-Oct-16 03:00N 35°25' E 139°41'0 0.0
2017-Oct-16 02:30N 35°25' E 139°41'0 0.0
2017-Oct-16 02:00N 35°25' E 139°41'0 0.0
2017-Oct-16 01:30N 35°25' E 139°41'0 0.0
2017-Oct-16 01:00N 35°25' E 139°41'0 0.0
2017-Oct-16 00:30N 35°25' E 139°41'0 0.0
2017-Oct-16 00:00N 35°25' E 139°41'0 0.0
2017-Oct-15 23:30N 35°25' E 139°41'0 0.0
2017-Oct-15 23:00N 35°25' E 139°41'0 0.0
2017-Oct-15 22:30N 35°25' E 139°41'0 0.0
2017-Oct-15 22:00N 35°25' E 139°41'0 0.0
2017-Oct-15 21:30N 35°25' E 139°41'0 0.0
2017-Oct-15 21:00N 35°25' E 139°41'0 0.0
2017-Oct-15 20:30N 35°25' E 139°41'0 0.0
2017-Oct-15 20:00N 35°25' E 139°41'0 0.0
2017-Oct-15 19:30N 35°25' E 139°41'0 0.0
2017-Oct-15 19:00N 35°25' E 139°41'0 0.0
2017-Oct-15 18:30N 35°25' E 139°41'0 0.0
2017-Oct-15 18:00N 35°25' E 139°41'0 0.0
2017-Oct-15 17:30N 35°25' E 139°41'0 0.0
2017-Oct-15 17:00N 35°25' E 139°41'0 0.0
2017-Oct-15 16:30N 35°25' E 139°41'0 0.0
2017-Oct-15 16:00N 35°25' E 139°41'0 0.0
2017-Oct-15 15:30N 35°25' E 139°41'0 0.0
2017-Oct-15 15:00N 35°25' E 139°41'0 0.0
2017-Oct-15 14:00N 35°25' E 139°41'0 0.0
2017-Oct-15 13:30N 35°25' E 139°41'0 0.0
2017-Oct-15 13:00N 35°25' E 139°41'0 0.0
2017-Oct-15 12:30N 35°25' E 139°41'0 0.0
2017-Oct-15 12:00N 35°25' E 139°41'0 0.0
2017-Oct-15 11:30N 35°25' E 139°41'0 0.0
2017-Oct-15 11:00N 35°25' E 139°41'0 0.0
2017-Oct-15 10:30N 35°25' E 139°41'0 0.0
2017-Oct-15 10:00N 35°25' E 139°41'0 0.0
2017-Oct-15 09:30N 35°25' E 139°41'0 0.0
2017-Oct-15 09:00N 35°25' E 139°41'0 0.0
2017-Oct-15 08:30N 35°25' E 139°41'0 0.0
2017-Oct-15 08:00N 35°25' E 139°41'0 0.0
2017-Oct-15 07:30N 35°25' E 139°41'0 0.0
2017-Oct-15 07:00N 35°25' E 139°41'2 4.5
2017-Oct-15 06:30N 35°24' E 139°43'611.4
2017-Oct-15 06:00N 35°23' E 139°50'2 3.2
2017-Oct-15 05:30N 35°22' E 139°52'1 1.3
2017-Oct-15 04:46N 35°23' E 139°51'3 6.2
2017-Oct-15 04:19N 35°24' E 139°48'1 4.3
2017-Oct-15 04:00N 35°25' E 139°49'1 2.0
2017-Oct-15 03:30N 35°25' E 139°49'3 6.5
2017-Oct-15 03:00N 35°22' E 139°52'1 2.0
2017-Oct-15 02:25N 35°23' E 139°51'2 5.8
2017-Oct-15 02:00N 35°21' E 139°49'0 0.0
2017-Oct-15 01:30N 35°20' E 139°49'0 0.8
2017-Oct-15 01:00N 35°21' E 139°49'3 5.1
2017-Oct-15 00:30N 35°23' E 139°48'2 4.2
2017-Oct-15 00:00N 35°22' E 139°46'0 0.4
2017-Oct-14 23:30N 35°22' E 139°46'0 0.8
2017-Oct-14 23:00N 35°22' E 139°46'5 9.6
2017-Oct-14 22:30N 35°25' E 139°41'0 0.4
2017-Oct-14 22:00N 35°25' E 139°41'0 0.0
2017-Oct-14 21:30N 35°25' E 139°41'0 0.0
2017-Oct-14 21:00N 35°25' E 139°41'0 0.0
2017-Oct-14 20:30N 35°25' E 139°41'0 0.0
2017-Oct-14 20:00N 35°25' E 139°41'0 0.0
2017-Oct-14 19:30N 35°25' E 139°41'0 0.0
2017-Oct-14 19:00N 35°25' E 139°41'0 0.0
2017-Oct-14 18:30N 35°25' E 139°41'0 0.0
2017-Oct-14 18:00N 35°25' E 139°41'0 0.0
2017-Oct-14 17:30N 35°25' E 139°41'0 0.0
2017-Oct-14 17:00N 35°25' E 139°41'0 0.0
2017-Oct-14 16:30N 35°25' E 139°41'0 0.0
2017-Oct-14 16:00N 35°25' E 139°41'0 0.0
2017-Oct-14 15:30N 35°25' E 139°41'0 0.0
2017-Oct-14 15:00N 35°25' E 139°41'0 0.0
2017-Oct-14 14:30N 35°25' E 139°41'0 0.0
2017-Oct-14 14:00N 35°25' E 139°41'0 0.0
2017-Oct-14 13:30N 35°25' E 139°41'0 0.0
2017-Oct-14 13:00N 35°25' E 139°41'0 0.0
2017-Oct-14 12:30N 35°25' E 139°41'0 0.0
2017-Oct-14 12:00N 35°25' E 139°41'0 0.0
2017-Oct-14 11:30N 35°25' E 139°41'0 0.0
2017-Oct-14 11:00N 35°25' E 139°41'0 0.0
2017-Oct-14 10:30N 35°25' E 139°41'0 0.0
2017-Oct-14 10:00N 35°25' E 139°41'0 0.0
2017-Oct-14 09:30N 35°25' E 139°41'0 0.0
2017-Oct-14 09:00N 35°25' E 139°41'0 0.0
2017-Oct-14 08:30N 35°25' E 139°41'0 0.0
2017-Oct-14 08:00N 35°25' E 139°41'0 0.0
2017-Oct-14 07:30N 35°25' E 139°41'0 0.0
2017-Oct-14 07:00N 35°25' E 139°41'0 0.0
2017-Oct-14 06:30N 35°25' E 139°41'0 0.0
2017-Oct-14 06:00N 35°25' E 139°41'0 0.0
2017-Oct-14 05:30N 35°25' E 139°41'0 0.0
2017-Oct-14 05:00N 35°25' E 139°41'0 0.0
2017-Oct-14 04:30N 35°25' E 139°41'0 0.0
2017-Oct-14 04:00N 35°25' E 139°41'0 0.0
2017-Oct-14 03:30N 35°25' E 139°41'0 0.0
2017-Oct-14 03:00N 35°25' E 139°41'0 0.0
2017-Oct-14 02:30N 35°25' E 139°41'0 0.0
2017-Oct-14 02:00N 35°25' E 139°41'0 0.0
2017-Oct-14 01:30N 35°25' E 139°41'1 1.4
2017-Oct-14 01:00N 35°25' E 139°42'3 6.2
2017-Oct-14 00:30N 35°24' E 139°38'0 0.3
2017-Oct-14 00:00N 35°24' E 139°38'1 1.5
2017-Oct-13 23:30N 35°24' E 139°39'1 1.6
2017-Oct-13 23:00N 35°23' E 139°40'1 2.7
2017-Oct-13 22:30N 35°24' E 139°38'3 5.3
2017-Oct-13 22:00N 35°25' E 139°41'0 0.6
2017-Oct-13 21:30N 35°25' E 139°41'0 0.0
2017-Oct-13 21:00N 35°25' E 139°41'0 0.0
2017-Oct-13 20:30N 35°25' E 139°41'0 0.0
2017-Oct-13 20:00N 35°25' E 139°41'0 0.0
2017-Oct-13 19:30N 35°25' E 139°41'0 0.0
2017-Oct-13 19:00N 35°25' E 139°41'0 0.0
2017-Oct-13 18:30N 35°25' E 139°41'0 0.0
2017-Oct-13 18:00N 35°25' E 139°41'0 0.0
2017-Oct-13 17:30N 35°25' E 139°41'0 0.0
2017-Oct-13 17:00N 35°25' E 139°41'0 0.0
2017-Oct-13 16:30N 35°25' E 139°41'0 0.0
2017-Oct-13 16:00N 35°25' E 139°41'0 0.0
2017-Oct-13 15:30N 35°25' E 139°41'0 0.0
2017-Oct-13 15:00N 35°25' E 139°41'0 0.0
2017-Oct-13 14:30N 35°25' E 139°41'0 0.0
2017-Oct-13 14:00N 35°25' E 139°41'0 0.0
2017-Oct-13 13:30N 35°25' E 139°41'0 0.0
2017-Oct-13 13:00N 35°25' E 139°41'0 0.0
2017-Oct-13 12:30N 35°25' E 139°41'0 0.0
2017-Oct-13 12:00N 35°25' E 139°41'0 0.0
2017-Oct-13 11:30N 35°25' E 139°41'0 0.0
2017-Oct-13 11:00N 35°25' E 139°41'0 0.0
2017-Oct-13 10:30N 35°25' E 139°41'0 0.0
2017-Oct-13 10:00N 35°25' E 139°41'0 0.0
2017-Oct-13 09:30N 35°25' E 139°41'0 0.0
2017-Oct-13 09:00N 35°25' E 139°41'0 0.2
2017-Oct-13 08:31N 35°25' E 139°41'3 5.3
2017-Oct-13 08:00N 35°24' E 139°38'0 0.1
2017-Oct-13 07:30N 35°24' E 139°38'0 0.0
2017-Oct-13 07:00N 35°24' E 139°38'0 0.0
2017-Oct-13 06:30N 35°24' E 139°38'1 1.8
2017-Oct-13 06:00N 35°24' E 139°39'4 7.8
2017-Oct-13 05:30N 35°26' E 139°43'3 6.2
2017-Oct-13 05:00N 35°29' E 139°42'0 0.1
2017-Oct-13 04:30N 35°29' E 139°42'2 4.5
2017-Oct-13 04:00N 35°27' E 139°42'3 5.0
2017-Oct-13 03:30N 35°25' E 139°41'0 0.0
2017-Oct-13 03:00N 35°25' E 139°41'0 0.0
2017-Oct-13 02:30N 35°25' E 139°41'0 0.0
2017-Oct-13 02:00N 35°25' E 139°41'0 0.0
2017-Oct-13 01:30N 35°25' E 139°41'0 0.0
2017-Oct-13 01:00N 35°25' E 139°41'0 0.0
2017-Oct-13 00:30N 35°25' E 139°41'0 0.0
2017-Oct-13 00:00N 35°25' E 139°41'0 0.0
2017-Oct-12 23:30N 35°25' E 139°41'0 0.0
2017-Oct-12 23:00N 35°25' E 139°41'0 0.0
2017-Oct-12 22:30N 35°25' E 139°41'0 0.0
2017-Oct-12 22:00N 35°25' E 139°41'0 0.0
2017-Oct-12 21:30N 35°25' E 139°41'0 0.0
2017-Oct-12 21:00N 35°25' E 139°41'0 0.0
2017-Oct-12 20:30N 35°25' E 139°41'0 0.0
2017-Oct-12 20:00N 35°25' E 139°41'0 0.0
2017-Oct-12 19:30N 35°25' E 139°41'0 0.0
2017-Oct-12 19:00N 35°25' E 139°41'0 0.0
2017-Oct-12 18:30N 35°25' E 139°41'0 0.0
2017-Oct-12 18:00N 35°25' E 139°41'0 0.0
2017-Oct-12 17:30N 35°25' E 139°41'0 0.0
2017-Oct-12 17:00N 35°25' E 139°41'0 0.0
2017-Oct-12 16:30N 35°25' E 139°41'0 0.0
2017-Oct-12 16:00N 35°25' E 139°41'0 0.0
2017-Oct-12 15:30N 35°25' E 139°41'0 0.0
2017-Oct-12 15:00N 35°25' E 139°41'0 0.0
2017-Oct-12 14:30N 35°25' E 139°41'0 0.0
2017-Oct-12 14:00N 35°25' E 139°41'0 0.0
2017-Oct-12 13:30N 35°25' E 139°41'0 0.0
2017-Oct-12 13:00N 35°25' E 139°41'0 0.0
2017-Oct-12 12:30N 35°25' E 139°41'0 0.0
2017-Oct-12 12:00N 35°25' E 139°41'0 0.0
2017-Oct-12 11:30N 35°25' E 139°41'0 0.0
2017-Oct-12 11:00N 35°25' E 139°41'0 0.0
2017-Oct-12 10:30N 35°25' E 139°41'0 0.0
2017-Oct-12 10:00N 35°25' E 139°41'0 0.0
2017-Oct-12 09:30N 35°25' E 139°41'0 0.0
2017-Oct-12 09:00N 35°25' E 139°41'0 0.0
2017-Oct-12 08:30N 35°25' E 139°41'0 0.0
2017-Oct-12 08:00N 35°25' E 139°41'0 0.1
2017-Oct-12 07:30N 35°25' E 139°41'0 0.1
2017-Oct-12 07:00N 35°25' E 139°41'0 0.0
2017-Oct-12 06:30N 35°25' E 139°41'0 0.0
2017-Oct-12 06:00N 35°25' E 139°41'0 0.0
2017-Oct-12 05:30N 35°25' E 139°41'0 0.0
2017-Oct-12 05:00N 35°25' E 139°41'3 5.5
2017-Oct-12 04:30N 35°24' E 139°44'611.1
2017-Oct-12 04:00N 35°23' E 139°51'1 2.8
2017-Oct-12 03:30N 35°22' E 139°52'3 2.4
2017-Oct-12 02:19N 35°24' E 139°49'1 2.9
2017-Oct-12 01:59N 35°24' E 139°48'0 0.1
2017-Oct-12 01:30N 35°24' E 139°48'2 3.7
2017-Oct-12 01:00N 35°22' E 139°49'2 4.1
2017-Oct-12 00:30N 35°20' E 139°49'0 0.4
2017-Oct-12 00:00N 35°21' E 139°49'1 2.1
2017-Oct-11 23:30N 35°21' E 139°49'4 8.8
2017-Oct-11 23:00N 35°24' E 139°44'4 0.2
2017-Oct-10 23:53N 35°23' E 139°48'1 1.1
2017-Oct-10 23:24N 35°23' E 139°48'1 3.6
2017-Oct-10 23:00N 35°23' E 139°46'5 0.5
2017-Oct-10 13:48N 35°25' E 139°41'0 0.0
2017-Oct-10 09:24N 35°25' E 139°41'  

Dump ship's entire track history